Aérodrome :
LOGIN :

S'inscrire | Disclaimer

   EN    FR    IT 

 










Légende :    VFR   VFR Marginal   IFR   IFR Intensif   IFR Très Intensif
Visi : 
Plafond : 
>= 8 km
>= 3000ft
5 à 8 km
1000 à 3000 ft
1500m à 5 km
500 à 1000 ft
800 à 1500m
200 à 500 ft
< 800m
< 200 ft
Symboles :   Orages  Brouillard  Fortes neiges  Fortes précipitations  Vent > 20 kt
SIGMETs :   Divers  Orages  Givrage  Turbulence  Onde Orograph.  Cendres Volcan.







- Altitude de l'aérodrome : 1260 ft
- Code IATA : LDE
- Voir les cartes d'approche


LFBT - Tarbes / Ossun

DERNIER METAR :
  • 221700Z AUTO 30005KT CAVOK 14/09 Q1027 NOSIG

METARs EXPIRÉS :
  • 221630Z AUTO 28005KT CAVOK 16/09 Q1026 NOSIG
  • 221600Z AUTO 28007KT 250V310 CAVOK 17/09 Q1026 NOSIG
  • 221530Z AUTO 28008KT CAVOK 18/09 Q1026 NOSIG
  • 221500Z AUTO 29009KT 9999 FEW032 17/10 Q1026 NOSIG
  • 221430Z AUTO 32009KT 290V350 9999 OVC030 18/11 Q1025 NOSIG

TAF TAF LFBT
Valide du 22 à 12h jusqu'au 23 à 12h UTC


221100Z 2212/2312 33005KT 9999 SCT025
BECMG 2212/2214 CAVOK
TEMPO 2214/2221 BKN030
Pas de NOTAMs connus pour ce terrain.



MET'MAP, la Météo Aéronautique d'un coup d'oeil ! - Copyright ORBIFLY Décembre 2007 - Disclaimer

ORBIFLY MET'MAP TEAM :

Programmation & Développement : Alexandra Zaïnal
Conception & Développement : Baudouin d'Aumeries
Co-Programmation & Développement : Marc-Olivier Méhu
Soutien technique & logistique : Manuel Goepfert

Contact : metmap@orbifly.com




SOURCES & CREDITS :

   NOAA